sensor_id;sensor_type;location;lat;lon;timestamp;P1;durP1;ratioP1;P2;durP2;ratioP2
6013;SDS011;3035;49.928;8.410;2023-04-25T00:01:41;5.00;;;4.47;;
6013;SDS011;3035;49.928;8.410;2023-04-25T00:04:10;4.73;;;4.23;;
6013;SDS011;3035;49.928;8.410;2023-04-25T00:06:39;7.67;;;5.10;;
6013;SDS011;3035;49.928;8.410;2023-04-25T00:09:07;5.87;;;4.73;;
6013;SDS011;3035;49.928;8.410;2023-04-25T00:11:36;7.17;;;4.40;;
6013;SDS011;3035;49.928;8.410;2023-04-25T00:14:04;6.73;;;5.37;;
6013;SDS011;3035;49.928;8.410;2023-04-25T00:16:32;6.40;;;4.40;;
6013;SDS011;3035;49.928;8.410;2023-04-25T00:19:01;6.10;;;4.60;;
6013;SDS011;3035;49.928;8.410;2023-04-25T00:21:29;6.90;;;5.07;;
6013;SDS011;3035;49.928;8.410;2023-04-25T00:23:57;4.90;;;4.40;;
6013;SDS011;3035;49.928;8.410;2023-04-25T00:26:25;4.73;;;4.27;;
6013;SDS011;3035;49.928;8.410;2023-04-25T00:28:53;4.70;;;3.90;;
6013;SDS011;3035;49.928;8.410;2023-04-25T00:31:22;4.37;;;3.93;;
6013;SDS011;3035;49.928;8.410;2023-04-25T00:33:51;5.87;;;4.57;;
6013;SDS011;3035;49.928;8.410;2023-04-25T00:36:19;5.60;;;3.43;;
6013;SDS011;3035;49.928;8.410;2023-04-25T00:38:47;5.00;;;4.43;;
6013;SDS011;3035;49.928;8.410;2023-04-25T00:41:15;4.90;;;4.13;;
6013;SDS011;3035;49.928;8.410;2023-04-25T00:43:43;4.47;;;3.90;;
6013;SDS011;3035;49.928;8.410;2023-04-25T00:46:12;5.43;;;4.90;;
6013;SDS011;3035;49.928;8.410;2023-04-25T00:48:40;4.37;;;3.70;;
6013;SDS011;3035;49.928;8.410;2023-04-25T00:51:09;6.50;;;3.90;;
6013;SDS011;3035;49.928;8.410;2023-04-25T00:53:37;4.17;;;3.70;;
6013;SDS011;3035;49.928;8.410;2023-04-25T00:58:40;6.67;;;4.33;;
6013;SDS011;3035;49.928;8.410;2023-04-25T01:01:10;6.03;;;4.53;;
6013;SDS011;3035;49.928;8.410;2023-04-25T01:03:38;5.23;;;4.73;;
6013;SDS011;3035;49.928;8.410;2023-04-25T01:06:09;6.60;;;4.33;;
6013;SDS011;3035;49.928;8.410;2023-04-25T01:08:38;5.87;;;4.77;;
6013;SDS011;3035;49.928;8.410;2023-04-25T01:11:05;5.20;;;4.27;;
6013;SDS011;3035;49.928;8.410;2023-04-25T01:13:35;6.33;;;4.63;;
6013;SDS011;3035;49.928;8.410;2023-04-25T01:16:04;4.97;;;4.47;;
6013;SDS011;3035;49.928;8.410;2023-04-25T01:18:32;6.20;;;4.40;;
6013;SDS011;3035;49.928;8.410;2023-04-25T01:21:06;5.00;;;4.30;;
6013;SDS011;3035;49.928;8.410;2023-04-25T01:23:34;5.13;;;4.60;;
6013;SDS011;3035;49.928;8.410;2023-04-25T01:26:03;6.63;;;4.53;;
6013;SDS011;3035;49.928;8.410;2023-04-25T01:28:31;6.33;;;4.40;;
6013;SDS011;3035;49.928;8.410;2023-04-25T01:31:00;6.33;;;4.93;;
6013;SDS011;3035;49.928;8.410;2023-04-25T01:33:29;5.77;;;4.90;;
6013;SDS011;3035;49.928;8.410;2023-04-25T01:35:56;4.67;;;4.07;;
6013;SDS011;3035;49.928;8.410;2023-04-25T01:38:25;5.30;;;4.63;;
6013;SDS011;3035;49.928;8.410;2023-04-25T01:40:54;9.30;;;5.03;;
6013;SDS011;3035;49.928;8.410;2023-04-25T01:43:22;8.10;;;4.47;;
6013;SDS011;3035;49.928;8.410;2023-04-25T01:45:51;5.90;;;4.63;;
6013;SDS011;3035;49.928;8.410;2023-04-25T01:48:19;5.27;;;4.30;;
6013;SDS011;3035;49.928;8.410;2023-04-25T01:50:47;4.90;;;4.40;;
6013;SDS011;3035;49.928;8.410;2023-04-25T01:53:16;12.83;;;4.30;;
6013;SDS011;3035;49.928;8.410;2023-04-25T01:55:45;7.80;;;4.80;;
6013;SDS011;3035;49.928;8.410;2023-04-25T01:58:14;7.63;;;4.70;;
6013;SDS011;3035;49.928;8.410;2023-04-25T02:00:42;5.57;;;4.80;;
6013;SDS011;3035;49.928;8.410;2023-04-25T02:03:11;5.87;;;3.77;;
6013;SDS011;3035;49.928;8.410;2023-04-25T02:05:40;5.27;;;4.10;;
6013;SDS011;3035;49.928;8.410;2023-04-25T02:08:08;5.80;;;4.30;;
6013;SDS011;3035;49.928;8.410;2023-04-25T02:10:37;8.57;;;5.53;;
6013;SDS011;3035;49.928;8.410;2023-04-25T02:13:05;11.40;;;4.93;;
6013;SDS011;3035;49.928;8.410;2023-04-25T02:15:33;7.43;;;4.90;;
6013;SDS011;3035;49.928;8.410;2023-04-25T02:18:02;5.77;;;4.03;;
6013;SDS011;3035;49.928;8.410;2023-04-25T02:20:30;5.50;;;4.67;;
6013;SDS011;3035;49.928;8.410;2023-04-25T02:22:58;7.73;;;4.97;;
6013;SDS011;3035;49.928;8.410;2023-04-25T02:25:27;6.20;;;4.70;;
6013;SDS011;3035;49.928;8.410;2023-04-25T02:27:55;6.20;;;5.23;;
6013;SDS011;3035;49.928;8.410;2023-04-25T02:30:24;7.40;;;5.33;;
6013;SDS011;3035;49.928;8.410;2023-04-25T02:32:53;5.87;;;4.20;;
6013;SDS011;3035;49.928;8.410;2023-04-25T02:35:21;5.47;;;4.73;;
6013;SDS011;3035;49.928;8.410;2023-04-25T02:37:49;5.77;;;5.17;;
6013;SDS011;3035;49.928;8.410;2023-04-25T02:40:18;7.70;;;5.23;;
6013;SDS011;3035;49.928;8.410;2023-04-25T02:42:46;6.30;;;5.00;;
6013;SDS011;3035;49.928;8.410;2023-04-25T02:45:16;6.20;;;4.50;;
6013;SDS011;3035;49.928;8.410;2023-04-25T02:47:44;5.10;;;4.60;;
6013;SDS011;3035;49.928;8.410;2023-04-25T02:50:13;8.03;;;5.50;;
6013;SDS011;3035;49.928;8.410;2023-04-25T02:52:41;8.00;;;5.80;;
6013;SDS011;3035;49.928;8.410;2023-04-25T02:55:09;6.23;;;4.57;;
6013;SDS011;3035;49.928;8.410;2023-04-25T02:57:39;7.43;;;6.50;;
6013;SDS011;3035;49.928;8.410;2023-04-25T03:00:07;6.63;;;5.07;;
6013;SDS011;3035;49.928;8.410;2023-04-25T03:02:37;8.60;;;5.70;;
6013;SDS011;3035;49.928;8.410;2023-04-25T03:05:06;6.70;;;5.10;;
6013;SDS011;3035;49.928;8.410;2023-04-25T03:07:34;5.57;;;4.60;;
6013;SDS011;3035;49.928;8.410;2023-04-25T03:10:03;7.37;;;5.17;;
6013;SDS011;3035;49.928;8.410;2023-04-25T03:12:33;7.80;;;4.97;;
6013;SDS011;3035;49.928;8.410;2023-04-25T03:15:02;7.37;;;4.90;;
6013;SDS011;3035;49.928;8.410;2023-04-25T03:17:31;8.97;;;5.83;;
6013;SDS011;3035;49.928;8.410;2023-04-25T03:20:00;9.73;;;6.07;;
6013;SDS011;3035;49.928;8.410;2023-04-25T03:22:28;8.27;;;6.23;;
6013;SDS011;3035;49.928;8.410;2023-04-25T03:24:56;6.10;;;5.40;;
6013;SDS011;3035;49.928;8.410;2023-04-25T03:27:25;5.27;;;4.77;;
6013;SDS011;3035;49.928;8.410;2023-04-25T03:29:54;6.03;;;5.37;;
6013;SDS011;3035;49.928;8.410;2023-04-25T03:32:22;8.60;;;5.50;;
6013;SDS011;3035;49.928;8.410;2023-04-25T03:34:50;7.23;;;5.90;;
6013;SDS011;3035;49.928;8.410;2023-04-25T03:37:19;10.20;;;7.20;;
6013;SDS011;3035;49.928;8.410;2023-04-25T03:39:47;9.57;;;7.13;;
6013;SDS011;3035;49.928;8.410;2023-04-25T03:42:16;8.33;;;6.37;;
6013;SDS011;3035;49.928;8.410;2023-04-25T03:44:45;10.97;;;7.60;;
6013;SDS011;3035;49.928;8.410;2023-04-25T03:47:14;13.33;;;6.50;;
6013;SDS011;3035;49.928;8.410;2023-04-25T03:49:42;7.43;;;6.17;;
6013;SDS011;3035;49.928;8.410;2023-04-25T03:52:11;7.47;;;6.03;;
6013;SDS011;3035;49.928;8.410;2023-04-25T03:54:40;7.33;;;5.50;;
6013;SDS011;3035;49.928;8.410;2023-04-25T03:57:08;7.47;;;6.30;;
6013;SDS011;3035;49.928;8.410;2023-04-25T03:59:36;7.13;;;6.10;;
6013;SDS011;3035;49.928;8.410;2023-04-25T04:02:05;13.90;;;6.10;;
6013;SDS011;3035;49.928;8.410;2023-04-25T04:04:33;8.23;;;6.10;;
6013;SDS011;3035;49.928;8.410;2023-04-25T04:07:02;12.40;;;6.47;;
6013;SDS011;3035;49.928;8.410;2023-04-25T04:09:31;10.87;;;6.63;;
6013;SDS011;3035;49.928;8.410;2023-04-25T04:11:59;9.57;;;6.53;;
6013;SDS011;3035;49.928;8.410;2023-04-25T04:14:27;7.93;;;5.77;;
6013;SDS011;3035;49.928;8.410;2023-04-25T04:16:56;9.80;;;7.40;;
6013;SDS011;3035;49.928;8.410;2023-04-25T04:19:25;11.27;;;7.00;;
6013;SDS011;3035;49.928;8.410;2023-04-25T04:21:52;12.53;;;7.00;;
6013;SDS011;3035;49.928;8.410;2023-04-25T04:24:21;14.07;;;6.83;;
6013;SDS011;3035;49.928;8.410;2023-04-25T04:26:50;8.93;;;7.10;;
6013;SDS011;3035;49.928;8.410;2023-04-25T04:29:18;10.00;;;6.77;;
6013;SDS011;3035;49.928;8.410;2023-04-25T04:31:49;13.97;;;7.70;;
6013;SDS011;3035;49.928;8.410;2023-04-25T04:34:17;11.10;;;7.40;;
6013;SDS011;3035;49.928;8.410;2023-04-25T04:36:46;19.43;;;7.50;;
6013;SDS011;3035;49.928;8.410;2023-04-25T04:39:15;13.73;;;7.87;;
6013;SDS011;3035;49.928;8.410;2023-04-25T04:41:43;13.17;;;8.40;;
6013;SDS011;3035;49.928;8.410;2023-04-25T04:44:13;12.43;;;6.63;;
6013;SDS011;3035;49.928;8.410;2023-04-25T04:46:42;16.33;;;6.00;;
6013;SDS011;3035;49.928;8.410;2023-04-25T04:49:11;17.20;;;6.00;;
6013;SDS011;3035;49.928;8.410;2023-04-25T04:51:39;13.87;;;5.67;;
6013;SDS011;3035;49.928;8.410;2023-04-25T04:54:08;15.43;;;6.50;;
6013;SDS011;3035;49.928;8.410;2023-04-25T04:56:37;20.07;;;6.00;;
6013;SDS011;3035;49.928;8.410;2023-04-25T04:59:05;10.23;;;6.03;;
6013;SDS011;3035;49.928;8.410;2023-04-25T05:01:33;14.83;;;5.60;;
6013;SDS011;3035;49.928;8.410;2023-04-25T05:04:02;14.43;;;5.60;;
6013;SDS011;3035;49.928;8.410;2023-04-25T05:06:30;10.67;;;5.10;;
6013;SDS011;3035;49.928;8.410;2023-04-25T05:08:58;18.47;;;6.20;;
6013;SDS011;3035;49.928;8.410;2023-04-25T05:11:27;17.17;;;5.93;;
6013;SDS011;3035;49.928;8.410;2023-04-25T05:13:55;14.20;;;7.53;;
6013;SDS011;3035;49.928;8.410;2023-04-25T05:16:23;20.17;;;7.80;;
6013;SDS011;3035;49.928;8.410;2023-04-25T05:18:51;24.87;;;7.67;;
6013;SDS011;3035;49.928;8.410;2023-04-25T05:21:21;12.53;;;6.00;;
6013;SDS011;3035;49.928;8.410;2023-04-25T05:23:49;20.57;;;6.00;;
6013;SDS011;3035;49.928;8.410;2023-04-25T05:26:18;13.93;;;6.60;;
6013;SDS011;3035;49.928;8.410;2023-04-25T05:28:46;19.07;;;6.83;;
6013;SDS011;3035;49.928;8.410;2023-04-25T05:31:14;14.10;;;6.03;;
6013;SDS011;3035;49.928;8.410;2023-04-25T05:33:43;13.90;;;6.90;;
6013;SDS011;3035;49.928;8.410;2023-04-25T05:36:11;13.00;;;6.47;;
6013;SDS011;3035;49.928;8.410;2023-04-25T05:38:40;18.17;;;6.90;;
6013;SDS011;3035;49.928;8.410;2023-04-25T05:41:09;18.53;;;6.70;;
6013;SDS011;3035;49.928;8.410;2023-04-25T05:43:37;12.90;;;6.27;;
6013;SDS011;3035;49.928;8.410;2023-04-25T05:46:05;15.33;;;5.67;;
6013;SDS011;3035;49.928;8.410;2023-04-25T05:48:33;12.63;;;6.00;;
6013;SDS011;3035;49.928;8.410;2023-04-25T05:51:03;15.90;;;6.37;;
6013;SDS011;3035;49.928;8.410;2023-04-25T05:53:31;8.43;;;5.30;;
6013;SDS011;3035;49.928;8.410;2023-04-25T05:56:00;12.03;;;5.80;;
6013;SDS011;3035;49.928;8.410;2023-04-25T05:58:29;9.60;;;4.80;;
6013;SDS011;3035;49.928;8.410;2023-04-25T06:00:57;13.40;;;5.10;;
6013;SDS011;3035;49.928;8.410;2023-04-25T06:03:25;13.60;;;6.10;;
6013;SDS011;3035;49.928;8.410;2023-04-25T06:05:54;14.90;;;4.97;;
6013;SDS011;3035;49.928;8.410;2023-04-25T06:08:22;8.37;;;4.53;;
6013;SDS011;3035;49.928;8.410;2023-04-25T06:10:51;11.10;;;4.20;;
6013;SDS011;3035;49.928;8.410;2023-04-25T06:13:20;10.77;;;3.80;;
6013;SDS011;3035;49.928;8.410;2023-04-25T06:15:48;14.80;;;5.27;;
6013;SDS011;3035;49.928;8.410;2023-04-25T06:18:16;9.90;;;4.17;;
6013;SDS011;3035;49.928;8.410;2023-04-25T06:20:45;10.30;;;3.90;;
6013;SDS011;3035;49.928;8.410;2023-04-25T06:23:14;12.10;;;4.80;;
6013;SDS011;3035;49.928;8.410;2023-04-25T06:25:42;13.20;;;4.60;;
6013;SDS011;3035;49.928;8.410;2023-04-25T06:28:10;10.07;;;4.30;;
6013;SDS011;3035;49.928;8.410;2023-04-25T06:30:38;9.23;;;4.60;;
6013;SDS011;3035;49.928;8.410;2023-04-25T06:33:07;10.53;;;4.57;;
6013;SDS011;3035;49.928;8.410;2023-04-25T06:35:35;7.70;;;4.83;;
6013;SDS011;3035;49.928;8.410;2023-04-25T06:38:05;10.37;;;5.47;;
6013;SDS011;3035;49.928;8.410;2023-04-25T06:40:33;7.67;;;4.77;;
6013;SDS011;3035;49.928;8.410;2023-04-25T06:43:02;8.80;;;4.90;;
6013;SDS011;3035;49.928;8.410;2023-04-25T06:45:30;15.10;;;4.77;;
6013;SDS011;3035;49.928;8.410;2023-04-25T06:48:00;11.80;;;5.03;;
6013;SDS011;3035;49.928;8.410;2023-04-25T06:50:27;8.00;;;4.13;;
6013;SDS011;3035;49.928;8.410;2023-04-25T06:52:56;11.63;;;5.33;;
6013;SDS011;3035;49.928;8.410;2023-04-25T06:55:24;10.73;;;4.57;;
6013;SDS011;3035;49.928;8.410;2023-04-25T06:57:52;11.27;;;4.20;;
6013;SDS011;3035;49.928;8.410;2023-04-25T07:00:20;15.50;;;5.17;;
6013;SDS011;3035;49.928;8.410;2023-04-25T07:02:48;12.47;;;4.93;;
6013;SDS011;3035;49.928;8.410;2023-04-25T07:05:17;14.53;;;5.37;;
6013;SDS011;3035;49.928;8.410;2023-04-25T07:07:46;15.60;;;5.60;;
6013;SDS011;3035;49.928;8.410;2023-04-25T07:10:14;14.50;;;4.47;;
6013;SDS011;3035;49.928;8.410;2023-04-25T07:12:42;8.30;;;4.90;;
6013;SDS011;3035;49.928;8.410;2023-04-25T07:15:11;11.00;;;4.90;;
6013;SDS011;3035;49.928;8.410;2023-04-25T07:17:40;8.87;;;5.03;;
6013;SDS011;3035;49.928;8.410;2023-04-25T07:20:08;10.07;;;3.73;;
6013;SDS011;3035;49.928;8.410;2023-04-25T07:22:37;12.63;;;4.53;;
6013;SDS011;3035;49.928;8.410;2023-04-25T07:25:05;9.90;;;4.57;;
6013;SDS011;3035;49.928;8.410;2023-04-25T07:27:35;13.40;;;4.20;;
6013;SDS011;3035;49.928;8.410;2023-04-25T07:30:03;9.67;;;3.57;;
6013;SDS011;3035;49.928;8.410;2023-04-25T07:32:33;13.37;;;5.00;;
6013;SDS011;3035;49.928;8.410;2023-04-25T07:35:01;14.07;;;4.60;;
6013;SDS011;3035;49.928;8.410;2023-04-25T07:37:29;12.40;;;4.70;;
6013;SDS011;3035;49.928;8.410;2023-04-25T07:39:58;10.80;;;4.03;;
6013;SDS011;3035;49.928;8.410;2023-04-25T07:42:27;13.23;;;4.20;;
6013;SDS011;3035;49.928;8.410;2023-04-25T07:44:55;6.07;;;4.07;;
6013;SDS011;3035;49.928;8.410;2023-04-25T07:47:23;7.10;;;3.90;;
6013;SDS011;3035;49.928;8.410;2023-04-25T07:49:51;9.70;;;3.87;;
6013;SDS011;3035;49.928;8.410;2023-04-25T07:52:20;9.93;;;3.37;;
6013;SDS011;3035;49.928;8.410;2023-04-25T07:54:48;14.10;;;3.30;;
6013;SDS011;3035;49.928;8.410;2023-04-25T07:57:17;10.60;;;3.30;;
6013;SDS011;3035;49.928;8.410;2023-04-25T07:59:45;9.53;;;3.70;;
6013;SDS011;3035;49.928;8.410;2023-04-25T08:02:13;14.97;;;3.90;;
6013;SDS011;3035;49.928;8.410;2023-04-25T08:04:42;9.00;;;4.07;;
6013;SDS011;3035;49.928;8.410;2023-04-25T08:07:10;8.67;;;3.50;;
6013;SDS011;3035;49.928;8.410;2023-04-25T08:09:39;11.43;;;3.50;;
6013;SDS011;3035;49.928;8.410;2023-04-25T08:12:08;13.33;;;3.60;;
6013;SDS011;3035;49.928;8.410;2023-04-25T08:14:36;6.77;;;3.10;;
6013;SDS011;3035;49.928;8.410;2023-04-25T08:17:05;3.47;;;2.23;;
6013;SDS011;3035;49.928;8.410;2023-04-25T08:19:33;2.70;;;2.50;;
6013;SDS011;3035;49.928;8.410;2023-04-25T08:22:01;6.70;;;2.30;;
6013;SDS011;3035;49.928;8.410;2023-04-25T08:24:29;3.10;;;1.97;;
6013;SDS011;3035;49.928;8.410;2023-04-25T08:26:57;16.30;;;3.20;;
6013;SDS011;3035;49.928;8.410;2023-04-25T08:29:26;5.83;;;2.50;;
6013;SDS011;3035;49.928;8.410;2023-04-25T08:31:54;5.63;;;2.20;;
6013;SDS011;3035;49.928;8.410;2023-04-25T08:34:22;9.23;;;2.90;;
6013;SDS011;3035;49.928;8.410;2023-04-25T08:36:52;5.40;;;2.70;;
6013;SDS011;3035;49.928;8.410;2023-04-25T08:39:20;3.70;;;2.40;;
6013;SDS011;3035;49.928;8.410;2023-04-25T08:41:48;6.10;;;2.80;;
6013;SDS011;3035;49.928;8.410;2023-04-25T08:44:17;7.23;;;2.50;;
6013;SDS011;3035;49.928;8.410;2023-04-25T08:46:45;3.67;;;2.30;;
6013;SDS011;3035;49.928;8.410;2023-04-25T08:49:14;5.83;;;2.97;;
6013;SDS011;3035;49.928;8.410;2023-04-25T08:51:44;4.93;;;2.33;;
6013;SDS011;3035;49.928;8.410;2023-04-25T08:54:12;6.93;;;2.10;;
6013;SDS011;3035;49.928;8.410;2023-04-25T08:56:41;7.70;;;2.30;;
6013;SDS011;3035;49.928;8.410;2023-04-25T08:59:09;5.43;;;2.00;;
6013;SDS011;3035;49.928;8.410;2023-04-25T09:01:37;3.97;;;2.10;;
6013;SDS011;3035;49.928;8.410;2023-04-25T09:04:06;3.70;;;2.10;;
6013;SDS011;3035;49.928;8.410;2023-04-25T09:06:34;9.40;;;2.40;;
6013;SDS011;3035;49.928;8.410;2023-04-25T09:09:03;10.57;;;2.30;;
6013;SDS011;3035;49.928;8.410;2023-04-25T09:11:32;3.63;;;2.03;;
6013;SDS011;3035;49.928;8.410;2023-04-25T09:16:59;7.27;;;2.50;;
6013;SDS011;3035;49.928;8.410;2023-04-25T09:19:29;4.93;;;2.03;;
6013;SDS011;3035;49.928;8.410;2023-04-25T09:21:58;5.37;;;2.00;;
6013;SDS011;3035;49.928;8.410;2023-04-25T09:24:32;6.23;;;2.17;;
6013;SDS011;3035;49.928;8.410;2023-04-25T09:27:03;7.67;;;2.50;;
6013;SDS011;3035;49.928;8.410;2023-04-25T09:29:33;6.77;;;2.07;;
6013;SDS011;3035;49.928;8.410;2023-04-25T09:34:39;5.13;;;2.07;;
6013;SDS011;3035;49.928;8.410;2023-04-25T09:37:09;5.27;;;2.57;;
6013;SDS011;3035;49.928;8.410;2023-04-25T09:39:37;4.57;;;2.70;;
6013;SDS011;3035;49.928;8.410;2023-04-25T09:42:05;4.97;;;2.80;;
6013;SDS011;3035;49.928;8.410;2023-04-25T09:44:33;11.13;;;2.90;;
6013;SDS011;3035;49.928;8.410;2023-04-25T09:47:02;8.43;;;3.20;;
6013;SDS011;3035;49.928;8.410;2023-04-25T09:49:31;9.10;;;3.33;;
6013;SDS011;3035;49.928;8.410;2023-04-25T09:51:59;6.40;;;3.03;;
6013;SDS011;3035;49.928;8.410;2023-04-25T09:54:28;5.67;;;2.90;;
6013;SDS011;3035;49.928;8.410;2023-04-25T09:56:56;10.33;;;3.50;;
6013;SDS011;3035;49.928;8.410;2023-04-25T09:59:24;3.17;;;2.80;;
6013;SDS011;3035;49.928;8.410;2023-04-25T10:01:53;4.30;;;3.23;;
6013;SDS011;3035;49.928;8.410;2023-04-25T10:04:23;6.27;;;3.30;;
6013;SDS011;3035;49.928;8.410;2023-04-25T10:06:51;4.30;;;3.03;;
6013;SDS011;3035;49.928;8.410;2023-04-25T10:09:20;7.43;;;3.27;;
6013;SDS011;3035;49.928;8.410;2023-04-25T10:11:47;10.10;;;3.63;;
6013;SDS011;3035;49.928;8.410;2023-04-25T10:14:16;7.13;;;3.50;;
6013;SDS011;3035;49.928;8.410;2023-04-25T10:16:44;6.03;;;3.60;;
6013;SDS011;3035;49.928;8.410;2023-04-25T10:19:12;6.50;;;3.27;;
6013;SDS011;3035;49.928;8.410;2023-04-25T10:21:44;7.60;;;3.67;;
6013;SDS011;3035;49.928;8.410;2023-04-25T10:24:10;9.77;;;3.80;;
6013;SDS011;3035;49.928;8.410;2023-04-25T10:26:39;7.43;;;3.63;;
6013;SDS011;3035;49.928;8.410;2023-04-25T10:29:08;10.07;;;4.50;;
6013;SDS011;3035;49.928;8.410;2023-04-25T10:31:44;9.73;;;4.30;;
6013;SDS011;3035;49.928;8.410;2023-04-25T10:34:12;3.93;;;3.10;;
6013;SDS011;3035;49.928;8.410;2023-04-25T10:36:41;6.10;;;3.33;;
6013;SDS011;3035;49.928;8.410;2023-04-25T10:39:10;7.40;;;4.47;;
6013;SDS011;3035;49.928;8.410;2023-04-25T10:41:45;11.40;;;4.40;;
6013;SDS011;3035;49.928;8.410;2023-04-25T10:44:14;7.17;;;4.07;;
6013;SDS011;3035;49.928;8.410;2023-04-25T10:46:44;8.07;;;4.20;;
6013;SDS011;3035;49.928;8.410;2023-04-25T10:49:15;8.10;;;3.23;;
6013;SDS011;3035;49.928;8.410;2023-04-25T10:51:39;5.20;;;3.20;;
6013;SDS011;3035;49.928;8.410;2023-04-25T10:54:08;4.17;;;3.60;;
6013;SDS011;3035;49.928;8.410;2023-04-25T10:56:39;5.90;;;3.30;;
6013;SDS011;3035;49.928;8.410;2023-04-25T10:59:10;6.33;;;3.60;;
6013;SDS011;3035;49.928;8.410;2023-04-25T11:01:43;9.00;;;4.50;;
6013;SDS011;3035;49.928;8.410;2023-04-25T11:04:20;10.70;;;3.80;;
6013;SDS011;3035;49.928;8.410;2023-04-25T11:06:55;17.60;;;4.90;;
6013;SDS011;3035;49.928;8.410;2023-04-25T11:09:35;9.30;;;3.70;;
6013;SDS011;3035;49.928;8.410;2023-04-25T11:12:04;5.77;;;3.57;;
6013;SDS011;3035;49.928;8.410;2023-04-25T11:14:33;8.10;;;4.20;;
6013;SDS011;3035;49.928;8.410;2023-04-25T11:17:01;7.43;;;3.80;;
6013;SDS011;3035;49.928;8.410;2023-04-25T11:19:29;6.20;;;3.53;;
6013;SDS011;3035;49.928;8.410;2023-04-25T11:21:59;7.50;;;4.20;;
6013;SDS011;3035;49.928;8.410;2023-04-25T11:24:28;7.40;;;4.13;;
6013;SDS011;3035;49.928;8.410;2023-04-25T11:26:57;8.07;;;4.00;;
6013;SDS011;3035;49.928;8.410;2023-04-25T11:29:26;7.10;;;3.60;;
6013;SDS011;3035;49.928;8.410;2023-04-25T11:31:55;4.63;;;3.83;;
6013;SDS011;3035;49.928;8.410;2023-04-25T11:34:25;6.20;;;3.57;;
6013;SDS011;3035;49.928;8.410;2023-04-25T11:36:53;4.50;;;3.17;;
6013;SDS011;3035;49.928;8.410;2023-04-25T11:39:23;7.17;;;4.47;;
6013;SDS011;3035;49.928;8.410;2023-04-25T11:41:52;9.37;;;3.63;;
6013;SDS011;3035;49.928;8.410;2023-04-25T11:44:20;6.70;;;3.67;;
6013;SDS011;3035;49.928;8.410;2023-04-25T11:46:48;8.50;;;3.87;;
6013;SDS011;3035;49.928;8.410;2023-04-25T11:49:17;5.93;;;3.23;;
6013;SDS011;3035;49.928;8.410;2023-04-25T11:51:45;8.87;;;3.20;;
6013;SDS011;3035;49.928;8.410;2023-04-25T11:54:13;3.30;;;3.00;;
6013;SDS011;3035;49.928;8.410;2023-04-25T11:56:42;9.63;;;3.50;;
6013;SDS011;3035;49.928;8.410;2023-04-25T11:59:11;7.60;;;2.90;;
6013;SDS011;3035;49.928;8.410;2023-04-25T12:01:39;7.73;;;3.50;;
6013;SDS011;3035;49.928;8.410;2023-04-25T12:04:12;5.30;;;3.10;;
6013;SDS011;3035;49.928;8.410;2023-04-25T12:06:48;8.33;;;3.13;;
6013;SDS011;3035;49.928;8.410;2023-04-25T12:09:18;10.07;;;3.33;;
6013;SDS011;3035;49.928;8.410;2023-04-25T12:11:43;10.43;;;3.50;;
6013;SDS011;3035;49.928;8.410;2023-04-25T12:16:57;9.17;;;3.80;;
6013;SDS011;3035;49.928;8.410;2023-04-25T12:19:23;9.30;;;3.70;;
6013;SDS011;3035;49.928;8.410;2023-04-25T12:21:51;7.30;;;3.03;;
6013;SDS011;3035;49.928;8.410;2023-04-25T12:24:22;5.20;;;3.13;;
6013;SDS011;3035;49.928;8.410;2023-04-25T12:26:52;5.80;;;3.90;;
6013;SDS011;3035;49.928;8.410;2023-04-25T12:29:20;9.00;;;3.03;;
6013;SDS011;3035;49.928;8.410;2023-04-25T12:31:50;6.27;;;3.33;;
6013;SDS011;3035;49.928;8.410;2023-04-25T12:34:18;11.20;;;2.80;;
6013;SDS011;3035;49.928;8.410;2023-04-25T12:36:47;8.83;;;3.20;;
6013;SDS011;3035;49.928;8.410;2023-04-25T12:39:16;7.77;;;2.57;;
6013;SDS011;3035;49.928;8.410;2023-04-25T12:41:46;14.40;;;3.20;;
6013;SDS011;3035;49.928;8.410;2023-04-25T12:44:14;6.00;;;3.20;;
6013;SDS011;3035;49.928;8.410;2023-04-25T12:46:42;4.73;;;2.80;;
6013;SDS011;3035;49.928;8.410;2023-04-25T12:49:11;9.10;;;3.30;;
6013;SDS011;3035;49.928;8.410;2023-04-25T12:51:39;5.87;;;2.80;;
6013;SDS011;3035;49.928;8.410;2023-04-25T12:54:07;5.97;;;2.93;;
6013;SDS011;3035;49.928;8.410;2023-04-25T12:56:35;8.97;;;3.13;;
6013;SDS011;3035;49.928;8.410;2023-04-25T12:59:04;7.07;;;3.40;;
6013;SDS011;3035;49.928;8.410;2023-04-25T13:01:32;9.30;;;4.57;;
6013;SDS011;3035;49.928;8.410;2023-04-25T13:04:00;6.90;;;3.00;;
6013;SDS011;3035;49.928;8.410;2023-04-25T13:06:29;5.87;;;2.70;;
6013;SDS011;3035;49.928;8.410;2023-04-25T13:08:58;10.53;;;3.30;;
6013;SDS011;3035;49.928;8.410;2023-04-25T13:11:26;6.60;;;3.50;;
6013;SDS011;3035;49.928;8.410;2023-04-25T13:13:55;5.90;;;2.37;;
6013;SDS011;3035;49.928;8.410;2023-04-25T13:16:22;10.60;;;2.90;;
6013;SDS011;3035;49.928;8.410;2023-04-25T13:18:50;7.83;;;3.10;;
6013;SDS011;3035;49.928;8.410;2023-04-25T13:21:19;9.10;;;2.77;;
6013;SDS011;3035;49.928;8.410;2023-04-25T13:23:48;5.13;;;2.63;;
6013;SDS011;3035;49.928;8.410;2023-04-25T13:26:16;7.07;;;2.40;;
6013;SDS011;3035;49.928;8.410;2023-04-25T13:28:45;11.87;;;2.80;;
6013;SDS011;3035;49.928;8.410;2023-04-25T13:31:13;8.60;;;2.73;;
6013;SDS011;3035;49.928;8.410;2023-04-25T13:33:41;6.27;;;2.63;;
6013;SDS011;3035;49.928;8.410;2023-04-25T13:36:09;8.20;;;2.97;;
6013;SDS011;3035;49.928;8.410;2023-04-25T13:38:37;7.63;;;2.40;;
6013;SDS011;3035;49.928;8.410;2023-04-25T13:41:06;11.27;;;2.70;;
6013;SDS011;3035;49.928;8.410;2023-04-25T13:43:34;8.50;;;3.20;;
6013;SDS011;3035;49.928;8.410;2023-04-25T13:46:03;5.20;;;2.83;;
6013;SDS011;3035;49.928;8.410;2023-04-25T13:48:31;6.70;;;2.80;;
6013;SDS011;3035;49.928;8.410;2023-04-25T13:50:59;5.50;;;2.13;;
6013;SDS011;3035;49.928;8.410;2023-04-25T13:53:28;8.53;;;1.90;;
6013;SDS011;3035;49.928;8.410;2023-04-25T13:55:56;4.57;;;2.10;;
6013;SDS011;3035;49.928;8.410;2023-04-25T13:58:25;9.17;;;2.33;;
6013;SDS011;3035;49.928;8.410;2023-04-25T14:00:53;2.40;;;2.07;;
6013;SDS011;3035;49.928;8.410;2023-04-25T14:03:21;5.40;;;2.07;;
6013;SDS011;3035;49.928;8.410;2023-04-25T14:05:51;5.10;;;2.37;;
6013;SDS011;3035;49.928;8.410;2023-04-25T14:08:19;5.03;;;2.50;;
6013;SDS011;3035;49.928;8.410;2023-04-25T14:10:48;9.17;;;2.10;;
6013;SDS011;3035;49.928;8.410;2023-04-25T14:13:16;3.93;;;1.97;;
6013;SDS011;3035;49.928;8.410;2023-04-25T14:15:44;3.57;;;2.00;;
6013;SDS011;3035;49.928;8.410;2023-04-25T14:18:12;6.90;;;2.20;;
6013;SDS011;3035;49.928;8.410;2023-04-25T14:20:41;4.50;;;2.20;;
6013;SDS011;3035;49.928;8.410;2023-04-25T14:23:09;4.57;;;2.00;;
6013;SDS011;3035;49.928;8.410;2023-04-25T14:25:37;5.57;;;1.90;;
6013;SDS011;3035;49.928;8.410;2023-04-25T14:28:05;4.53;;;2.53;;
6013;SDS011;3035;49.928;8.410;2023-04-25T14:30:33;5.43;;;2.37;;
6013;SDS011;3035;49.928;8.410;2023-04-25T14:33:02;5.13;;;2.37;;
6013;SDS011;3035;49.928;8.410;2023-04-25T14:35:30;7.63;;;1.93;;
6013;SDS011;3035;49.928;8.410;2023-04-25T14:37:58;5.23;;;2.50;;
6013;SDS011;3035;49.928;8.410;2023-04-25T14:40:27;10.70;;;2.40;;
6013;SDS011;3035;49.928;8.410;2023-04-25T14:42:55;4.30;;;2.20;;
6013;SDS011;3035;49.928;8.410;2023-04-25T14:45:24;4.10;;;2.20;;
6013;SDS011;3035;49.928;8.410;2023-04-25T14:47:52;9.00;;;2.40;;
6013;SDS011;3035;49.928;8.410;2023-04-25T14:50:20;13.80;;;2.70;;
6013;SDS011;3035;49.928;8.410;2023-04-25T14:52:48;9.97;;;2.43;;
6013;SDS011;3035;49.928;8.410;2023-04-25T14:55:17;6.40;;;2.60;;
6013;SDS011;3035;49.928;8.410;2023-04-25T14:57:45;10.27;;;3.00;;
6013;SDS011;3035;49.928;8.410;2023-04-25T15:00:15;7.37;;;2.57;;
6013;SDS011;3035;49.928;8.410;2023-04-25T15:02:44;3.47;;;2.27;;
6013;SDS011;3035;49.928;8.410;2023-04-25T15:05:13;7.07;;;2.40;;
6013;SDS011;3035;49.928;8.410;2023-04-25T15:07:42;7.43;;;2.70;;
6013;SDS011;3035;49.928;8.410;2023-04-25T15:10:10;6.87;;;2.10;;
6013;SDS011;3035;49.928;8.410;2023-04-25T15:12:39;6.83;;;2.33;;
6013;SDS011;3035;49.928;8.410;2023-04-25T15:15:08;5.80;;;2.70;;
6013;SDS011;3035;49.928;8.410;2023-04-25T15:17:38;8.33;;;2.73;;
6013;SDS011;3035;49.928;8.410;2023-04-25T15:20:06;19.43;;;2.97;;
6013;SDS011;3035;49.928;8.410;2023-04-25T15:22:38;6.50;;;3.13;;
6013;SDS011;3035;49.928;8.410;2023-04-25T15:25:08;10.43;;;2.50;;
6013;SDS011;3035;49.928;8.410;2023-04-25T15:27:36;8.53;;;2.30;;
6013;SDS011;3035;49.928;8.410;2023-04-25T15:30:08;15.07;;;3.87;;
6013;SDS011;3035;49.928;8.410;2023-04-25T15:32:37;9.60;;;2.43;;